sensor_id;sensor_type;location;lat;lon;timestamp;P1;durP1;ratioP1;P2;durP2;ratioP2
3645;SDS011;1839;48.060;11.662;2022-07-18T05:01:53;10.40;;;3.13;;
3645;SDS011;1839;48.060;11.662;2022-07-18T05:04:20;11.47;;;3.40;;
3645;SDS011;1839;48.060;11.662;2022-07-18T05:06:48;10.20;;;3.87;;
3645;SDS011;1839;48.060;11.662;2022-07-18T05:09:15;34.13;;;3.93;;
3645;SDS011;1839;48.060;11.662;2022-07-18T05:11:42;15.67;;;4.10;;
3645;SDS011;1839;48.060;11.662;2022-07-18T05:14:09;11.83;;;3.70;;
3645;SDS011;1839;48.060;11.662;2022-07-18T05:16:36;9.63;;;3.50;;
3645;SDS011;1839;48.060;11.662;2022-07-18T05:19:05;12.83;;;3.67;;
3645;SDS011;1839;48.060;11.662;2022-07-18T05:21:32;12.80;;;4.17;;
3645;SDS011;1839;48.060;11.662;2022-07-18T05:23:59;10.60;;;3.50;;
3645;SDS011;1839;48.060;11.662;2022-07-18T05:26:26;10.57;;;3.50;;
3645;SDS011;1839;48.060;11.662;2022-07-18T05:28:54;11.00;;;3.50;;
3645;SDS011;1839;48.060;11.662;2022-07-18T05:31:21;15.87;;;4.33;;
3645;SDS011;1839;48.060;11.662;2022-07-18T05:33:48;15.03;;;4.00;;
3645;SDS011;1839;48.060;11.662;2022-07-18T05:36:17;11.60;;;3.90;;
3645;SDS011;1839;48.060;11.662;2022-07-18T05:38:44;8.90;;;3.33;;
3645;SDS011;1839;48.060;11.662;2022-07-18T05:41:12;9.47;;;3.50;;
3645;SDS011;1839;48.060;11.662;2022-07-18T05:43:40;13.53;;;3.50;;
3645;SDS011;1839;48.060;11.662;2022-07-18T05:46:07;11.23;;;3.50;;
3645;SDS011;1839;48.060;11.662;2022-07-18T05:48:34;12.20;;;3.43;;
3645;SDS011;1839;48.060;11.662;2022-07-18T05:51:01;12.90;;;3.50;;
3645;SDS011;1839;48.060;11.662;2022-07-18T05:53:30;9.30;;;3.53;;
3645;SDS011;1839;48.060;11.662;2022-07-18T05:55:57;10.00;;;3.90;;
3645;SDS011;1839;48.060;11.662;2022-07-18T05:58:25;12.60;;;3.93;;
3645;SDS011;1839;48.060;11.662;2022-07-18T06:00:52;9.20;;;3.40;;
3645;SDS011;1839;48.060;11.662;2022-07-18T06:03:19;8.60;;;3.00;;
3645;SDS011;1839;48.060;11.662;2022-07-18T06:05:46;9.17;;;3.30;;
3645;SDS011;1839;48.060;11.662;2022-07-18T06:08:14;9.27;;;3.57;;
3645;SDS011;1839;48.060;11.662;2022-07-18T06:10:42;10.70;;;3.30;;
3645;SDS011;1839;48.060;11.662;2022-07-18T06:13:09;8.87;;;3.43;;
3645;SDS011;1839;48.060;11.662;2022-07-18T06:15:37;8.90;;;3.00;;
3645;SDS011;1839;48.060;11.662;2022-07-18T06:18:04;9.50;;;3.37;;
3645;SDS011;1839;48.060;11.662;2022-07-18T06:20:31;8.47;;;3.50;;
3645;SDS011;1839;48.060;11.662;2022-07-18T06:22:58;11.00;;;3.50;;
3645;SDS011;1839;48.060;11.662;2022-07-18T06:25:25;11.87;;;3.20;;
3645;SDS011;1839;48.060;11.662;2022-07-18T06:27:54;7.67;;;2.97;;
3645;SDS011;1839;48.060;11.662;2022-07-18T06:30:21;17.20;;;3.17;;
3645;SDS011;1839;48.060;11.662;2022-07-18T06:32:49;8.37;;;2.93;;
3645;SDS011;1839;48.060;11.662;2022-07-18T06:35:16;8.60;;;3.67;;
3645;SDS011;1839;48.060;11.662;2022-07-18T06:37:43;8.60;;;3.00;;
3645;SDS011;1839;48.060;11.662;2022-07-18T06:40:11;7.97;;;2.87;;
3645;SDS011;1839;48.060;11.662;2022-07-18T06:42:38;7.97;;;3.10;;
3645;SDS011;1839;48.060;11.662;2022-07-18T06:45:07;10.70;;;3.00;;
3645;SDS011;1839;48.060;11.662;2022-07-18T06:47:35;12.47;;;2.93;;
3645;SDS011;1839;48.060;11.662;2022-07-18T06:50:02;9.83;;;3.00;;
3645;SDS011;1839;48.060;11.662;2022-07-18T06:52:29;8.73;;;2.90;;
3645;SDS011;1839;48.060;11.662;2022-07-18T06:54:56;8.60;;;3.00;;
3645;SDS011;1839;48.060;11.662;2022-07-18T06:57:25;12.40;;;2.73;;
3645;SDS011;1839;48.060;11.662;2022-07-18T06:59:52;7.90;;;2.70;;
3645;SDS011;1839;48.060;11.662;2022-07-18T07:02:21;12.30;;;3.47;;
3645;SDS011;1839;48.060;11.662;2022-07-18T07:04:48;12.60;;;2.90;;
3645;SDS011;1839;48.060;11.662;2022-07-18T07:07:16;8.13;;;3.43;;
3645;SDS011;1839;48.060;11.662;2022-07-18T07:09:43;13.30;;;3.30;;
3645;SDS011;1839;48.060;11.662;2022-07-18T07:12:10;10.77;;;3.20;;
3645;SDS011;1839;48.060;11.662;2022-07-18T07:14:37;12.43;;;3.20;;
3645;SDS011;1839;48.060;11.662;2022-07-18T07:17:05;9.17;;;2.90;;
3645;SDS011;1839;48.060;11.662;2022-07-18T07:19:33;8.30;;;2.70;;
3645;SDS011;1839;48.060;11.662;2022-07-18T07:22:00;8.33;;;2.73;;
3645;SDS011;1839;48.060;11.662;2022-07-18T07:24:27;8.63;;;3.10;;
3645;SDS011;1839;48.060;11.662;2022-07-18T07:26:55;5.77;;;2.23;;
3645;SDS011;1839;48.060;11.662;2022-07-18T07:29:22;7.60;;;2.60;;
3645;SDS011;1839;48.060;11.662;2022-07-18T07:31:49;7.73;;;2.60;;
3645;SDS011;1839;48.060;11.662;2022-07-18T07:34:16;6.70;;;2.57;;
3645;SDS011;1839;48.060;11.662;2022-07-18T07:36:45;15.73;;;3.00;;
3645;SDS011;1839;48.060;11.662;2022-07-18T07:39:12;6.33;;;2.00;;
3645;SDS011;1839;48.060;11.662;2022-07-18T07:41:39;6.60;;;2.43;;
3645;SDS011;1839;48.060;11.662;2022-07-18T07:44:06;11.10;;;2.70;;
3645;SDS011;1839;48.060;11.662;2022-07-18T07:46:33;7.40;;;2.60;;
3645;SDS011;1839;48.060;11.662;2022-07-18T07:49:01;6.80;;;2.43;;
3645;SDS011;1839;48.060;11.662;2022-07-18T07:51:28;11.87;;;2.53;;
3645;SDS011;1839;48.060;11.662;2022-07-18T07:53:57;6.40;;;2.33;;
3645;SDS011;1839;48.060;11.662;2022-07-18T07:56:24;7.57;;;2.70;;
3645;SDS011;1839;48.060;11.662;2022-07-18T07:58:51;9.77;;;2.60;;
3645;SDS011;1839;48.060;11.662;2022-07-18T08:01:18;12.40;;;3.00;;
3645;SDS011;1839;48.060;11.662;2022-07-18T08:03:45;7.50;;;2.93;;
3645;SDS011;1839;48.060;11.662;2022-07-18T08:06:14;6.07;;;2.43;;
3645;SDS011;1839;48.060;11.662;2022-07-18T08:08:42;7.10;;;2.20;;
3645;SDS011;1839;48.060;11.662;2022-07-18T08:11:10;8.73;;;2.70;;
3645;SDS011;1839;48.060;11.662;2022-07-18T08:13:37;6.90;;;2.40;;
3645;SDS011;1839;48.060;11.662;2022-07-18T08:16:04;5.50;;;2.03;;
3645;SDS011;1839;48.060;11.662;2022-07-18T08:18:32;6.23;;;2.00;;
3645;SDS011;1839;48.060;11.662;2022-07-18T08:20:59;6.67;;;2.67;;
3645;SDS011;1839;48.060;11.662;2022-07-18T08:23:26;6.10;;;2.20;;
3645;SDS011;1839;48.060;11.662;2022-07-18T08:25:53;8.00;;;2.47;;
3645;SDS011;1839;48.060;11.662;2022-07-18T08:28:22;8.50;;;2.60;;
3645;SDS011;1839;48.060;11.662;2022-07-18T08:30:49;5.93;;;1.90;;
3645;SDS011;1839;48.060;11.662;2022-07-18T08:33:17;8.03;;;2.17;;
3645;SDS011;1839;48.060;11.662;2022-07-18T08:35:44;7.13;;;1.73;;
3645;SDS011;1839;48.060;11.662;2022-07-18T08:38:11;5.83;;;1.70;;
3645;SDS011;1839;48.060;11.662;2022-07-18T08:40:38;8.03;;;1.80;;
3645;SDS011;1839;48.060;11.662;2022-07-18T08:43:06;5.93;;;2.17;;
3645;SDS011;1839;48.060;11.662;2022-07-18T08:45:34;6.60;;;1.90;;
3645;SDS011;1839;48.060;11.662;2022-07-18T08:48:02;6.27;;;1.80;;
3645;SDS011;1839;48.060;11.662;2022-07-18T08:50:29;5.90;;;1.93;;
3645;SDS011;1839;48.060;11.662;2022-07-18T08:52:57;5.47;;;2.00;;
3645;SDS011;1839;48.060;11.662;2022-07-18T08:55:24;5.73;;;1.80;;
3645;SDS011;1839;48.060;11.662;2022-07-18T08:57:51;5.60;;;1.70;;
3645;SDS011;1839;48.060;11.662;2022-07-18T09:00:19;8.43;;;1.80;;
3645;SDS011;1839;48.060;11.662;2022-07-18T09:02:49;5.73;;;1.60;;
3645;SDS011;1839;48.060;11.662;2022-07-18T09:05:22;8.47;;;1.77;;
3645;SDS011;1839;48.060;11.662;2022-07-18T09:07:49;4.37;;;1.40;;
3645;SDS011;1839;48.060;11.662;2022-07-18T09:10:17;5.20;;;1.70;;
3645;SDS011;1839;48.060;11.662;2022-07-18T09:12:54;4.90;;;1.50;;
3645;SDS011;1839;48.060;11.662;2022-07-18T09:15:22;5.60;;;1.67;;
3645;SDS011;1839;48.060;11.662;2022-07-18T09:17:50;6.07;;;1.73;;
3645;SDS011;1839;48.060;11.662;2022-07-18T09:20:18;5.10;;;1.60;;
3645;SDS011;1839;48.060;11.662;2022-07-18T09:22:46;6.13;;;1.60;;
3645;SDS011;1839;48.060;11.662;2022-07-18T09:25:14;5.80;;;1.30;;
3645;SDS011;1839;48.060;11.662;2022-07-18T09:27:42;4.87;;;1.57;;
3645;SDS011;1839;48.060;11.662;2022-07-18T09:30:14;6.57;;;1.47;;
3645;SDS011;1839;48.060;11.662;2022-07-18T09:32:42;5.10;;;1.60;;
3645;SDS011;1839;48.060;11.662;2022-07-18T09:35:12;5.70;;;1.70;;
3645;SDS011;1839;48.060;11.662;2022-07-18T09:37:40;5.17;;;1.50;;
3645;SDS011;1839;48.060;11.662;2022-07-18T09:40:14;5.47;;;1.50;;
3645;SDS011;1839;48.060;11.662;2022-07-18T09:42:41;5.27;;;1.50;;
3645;SDS011;1839;48.060;11.662;2022-07-18T09:45:09;4.80;;;1.40;;
3645;SDS011;1839;48.060;11.662;2022-07-18T09:47:49;5.57;;;1.50;;
3645;SDS011;1839;48.060;11.662;2022-07-18T09:50:20;6.40;;;1.60;;
3645;SDS011;1839;48.060;11.662;2022-07-18T09:53:01;9.53;;;1.57;;
3645;SDS011;1839;48.060;11.662;2022-07-18T09:55:28;5.43;;;1.73;;
3645;SDS011;1839;48.060;11.662;2022-07-18T09:57:56;4.80;;;1.47;;
3645;SDS011;1839;48.060;11.662;2022-07-18T10:00:27;4.80;;;1.77;;
3645;SDS011;1839;48.060;11.662;2022-07-18T10:02:56;7.13;;;1.30;;
3645;SDS011;1839;48.060;11.662;2022-07-18T10:05:26;7.03;;;1.47;;
3645;SDS011;1839;48.060;11.662;2022-07-18T10:07:53;8.17;;;1.90;;
3645;SDS011;1839;48.060;11.662;2022-07-18T10:10:20;5.03;;;1.60;;
3645;SDS011;1839;48.060;11.662;2022-07-18T10:12:50;4.93;;;1.50;;
3645;SDS011;1839;48.060;11.662;2022-07-18T10:15:18;5.17;;;1.73;;
3645;SDS011;1839;48.060;11.662;2022-07-18T10:17:46;9.40;;;1.53;;
3645;SDS011;1839;48.060;11.662;2022-07-18T10:20:13;4.90;;;1.67;;
3645;SDS011;1839;48.060;11.662;2022-07-18T10:22:42;11.23;;;1.20;;
3645;SDS011;1839;48.060;11.662;2022-07-18T10:25:09;5.00;;;1.57;;
3645;SDS011;1839;48.060;11.662;2022-07-18T10:27:50;5.43;;;1.60;;
3645;SDS011;1839;48.060;11.662;2022-07-18T10:30:28;5.83;;;1.47;;
3645;SDS011;1839;48.060;11.662;2022-07-18T10:32:56;5.17;;;1.50;;
3645;SDS011;1839;48.060;11.662;2022-07-18T10:38:20;7.00;;;1.70;;
3645;SDS011;1839;48.060;11.662;2022-07-18T10:41:00;8.63;;;1.40;;
3645;SDS011;1839;48.060;11.662;2022-07-18T10:43:31;4.10;;;1.30;;
3645;SDS011;1839;48.060;11.662;2022-07-18T10:45:59;4.40;;;1.50;;
3645;SDS011;1839;48.060;11.662;2022-07-18T10:51:12;5.43;;;1.60;;
3645;SDS011;1839;48.060;11.662;2022-07-18T10:54:00;5.20;;;1.60;;
3645;SDS011;1839;48.060;11.662;2022-07-18T10:59:15;7.18;;;1.45;;
3645;SDS011;1839;48.060;11.662;2022-07-18T11:01:47;4.90;;;1.48;;
3645;SDS011;1839;48.060;11.662;2022-07-18T11:04:21;6.93;;;1.50;;
3645;SDS011;1839;48.060;11.662;2022-07-18T11:06:52;4.72;;;1.45;;
3645;SDS011;1839;48.060;11.662;2022-07-18T11:09:32;4.75;;;1.20;;
3645;SDS011;1839;48.060;11.662;2022-07-18T11:12:21;7.05;;;1.40;;
3645;SDS011;1839;48.060;11.662;2022-07-18T11:15:02;5.00;;;1.50;;
3645;SDS011;1839;48.060;11.662;2022-07-18T11:20:25;4.55;;;1.45;;
3645;SDS011;1839;48.060;11.662;2022-07-18T11:22:52;5.05;;;1.27;;
3645;SDS011;1839;48.060;11.662;2022-07-18T11:25:24;13.55;;;5.35;;
3645;SDS011;1839;48.060;11.662;2022-07-18T11:27:52;5.00;;;1.63;;
3645;SDS011;1839;48.060;11.662;2022-07-18T11:30:20;4.45;;;1.23;;
3645;SDS011;1839;48.060;11.662;2022-07-18T11:32:48;6.57;;;1.75;;
3645;SDS011;1839;48.060;11.662;2022-07-18T11:35:19;5.65;;;1.42;;
3645;SDS011;1839;48.060;11.662;2022-07-18T11:37:47;4.25;;;1.45;;
3645;SDS011;1839;48.060;11.662;2022-07-18T11:40:15;5.90;;;1.70;;
3645;SDS011;1839;48.060;11.662;2022-07-18T11:42:44;4.22;;;1.30;;
3645;SDS011;1839;48.060;11.662;2022-07-18T11:45:11;6.93;;;1.20;;
3645;SDS011;1839;48.060;11.662;2022-07-18T11:47:39;3.47;;;1.30;;
3645;SDS011;1839;48.060;11.662;2022-07-18T11:50:07;4.22;;;1.35;;
3645;SDS011;1839;48.060;11.662;2022-07-18T11:52:34;5.68;;;1.42;;
3645;SDS011;1839;48.060;11.662;2022-07-18T11:55:01;3.42;;;1.23;;
3645;SDS011;1839;48.060;11.662;2022-07-18T11:57:29;3.20;;;1.10;;
3645;SDS011;1839;48.060;11.662;2022-07-18T11:59:59;5.32;;;1.23;;
3645;SDS011;1839;48.060;11.662;2022-07-18T12:05:12;3.65;;;1.15;;
3645;SDS011;1839;48.060;11.662;2022-07-18T12:07:39;3.03;;;1.10;;
3645;SDS011;1839;48.060;11.662;2022-07-18T12:10:16;3.13;;;1.02;;
3645;SDS011;1839;48.060;11.662;2022-07-18T12:12:43;4.25;;;1.10;;
3645;SDS011;1839;48.060;11.662;2022-07-18T12:15:12;3.70;;;1.20;;
3645;SDS011;1839;48.060;11.662;2022-07-18T12:17:43;3.28;;;1.10;;
3645;SDS011;1839;48.060;11.662;2022-07-18T12:20:11;2.95;;;0.95;;
3645;SDS011;1839;48.060;11.662;2022-07-18T12:25:20;3.45;;;1.08;;
3645;SDS011;1839;48.060;11.662;2022-07-18T12:27:47;3.25;;;1.13;;
3645;SDS011;1839;48.060;11.662;2022-07-18T12:30:18;4.53;;;1.20;;
3645;SDS011;1839;48.060;11.662;2022-07-18T12:32:47;2.70;;;1.10;;
3645;SDS011;1839;48.060;11.662;2022-07-18T12:35:16;2.58;;;0.95;;
3645;SDS011;1839;48.060;11.662;2022-07-18T12:37:50;2.78;;;0.93;;
3645;SDS011;1839;48.060;11.662;2022-07-18T12:40:18;3.55;;;1.13;;
3645;SDS011;1839;48.060;11.662;2022-07-18T12:42:45;4.50;;;1.10;;
3645;SDS011;1839;48.060;11.662;2022-07-18T12:45:12;3.33;;;1.00;;
3645;SDS011;1839;48.060;11.662;2022-07-18T12:47:41;2.38;;;0.95;;
3645;SDS011;1839;48.060;11.662;2022-07-18T12:50:08;4.75;;;1.23;;
3645;SDS011;1839;48.060;11.662;2022-07-18T12:52:36;3.38;;;1.20;;
3645;SDS011;1839;48.060;11.662;2022-07-18T12:55:03;2.97;;;1.08;;
3645;SDS011;1839;48.060;11.662;2022-07-18T12:57:31;3.40;;;1.10;;
3645;SDS011;1839;48.060;11.662;2022-07-18T12:59:58;4.43;;;1.30;;
3645;SDS011;1839;48.060;11.662;2022-07-18T13:02:25;3.05;;;0.88;;
3645;SDS011;1839;48.060;11.662;2022-07-18T13:04:54;4.15;;;1.10;;
3645;SDS011;1839;48.060;11.662;2022-07-18T13:07:21;2.97;;;1.17;;
3645;SDS011;1839;48.060;11.662;2022-07-18T13:09:48;7.38;;;1.20;;
3645;SDS011;1839;48.060;11.662;2022-07-18T13:12:16;3.30;;;1.02;;
3645;SDS011;1839;48.060;11.662;2022-07-18T13:14:43;2.83;;;1.10;;
3645;SDS011;1839;48.060;11.662;2022-07-18T13:17:10;3.53;;;1.23;;
3645;SDS011;1839;48.060;11.662;2022-07-18T13:19:37;11.70;;;1.20;;
3645;SDS011;1839;48.060;11.662;2022-07-18T13:22:06;4.82;;;1.20;;
3645;SDS011;1839;48.060;11.662;2022-07-18T13:24:33;4.75;;;1.20;;
3645;SDS011;1839;48.060;11.662;2022-07-18T13:27:02;7.93;;;1.35;;
3645;SDS011;1839;48.060;11.662;2022-07-18T13:29:29;3.05;;;1.17;;
3645;SDS011;1839;48.060;11.662;2022-07-18T13:31:56;5.78;;;1.38;;
3645;SDS011;1839;48.060;11.662;2022-07-18T13:34:23;6.38;;;1.40;;
3645;SDS011;1839;48.060;11.662;2022-07-18T13:36:51;8.68;;;1.10;;
3645;SDS011;1839;48.060;11.662;2022-07-18T13:39:19;3.13;;;1.05;;
3645;SDS011;1839;48.060;11.662;2022-07-18T13:41:47;3.63;;;1.10;;
3645;SDS011;1839;48.060;11.662;2022-07-18T13:44:15;4.53;;;1.10;;
3645;SDS011;1839;48.060;11.662;2022-07-18T13:46:42;3.00;;;1.15;;
3645;SDS011;1839;48.060;11.662;2022-07-18T13:49:10;6.45;;;1.30;;
3645;SDS011;1839;48.060;11.662;2022-07-18T13:51:37;2.60;;;1.10;;
3645;SDS011;1839;48.060;11.662;2022-07-18T13:54:05;2.70;;;1.10;;
3645;SDS011;1839;48.060;11.662;2022-07-18T13:56:33;4.07;;;1.10;;
3645;SDS011;1839;48.060;11.662;2022-07-18T13:59:01;5.30;;;1.08;;
3645;SDS011;1839;48.060;11.662;2022-07-18T14:01:28;8.50;;;1.23;;
3645;SDS011;1839;48.060;11.662;2022-07-18T14:03:55;4.03;;;1.40;;
3645;SDS011;1839;48.060;11.662;2022-07-18T14:06:22;5.25;;;1.05;;
3645;SDS011;1839;48.060;11.662;2022-07-18T14:08:49;5.28;;;1.38;;
3645;SDS011;1839;48.060;11.662;2022-07-18T14:11:17;3.85;;;1.17;;
3645;SDS011;1839;48.060;11.662;2022-07-18T14:13:45;5.50;;;1.48;;
3645;SDS011;1839;48.060;11.662;2022-07-18T14:16:13;7.65;;;1.50;;
3645;SDS011;1839;48.060;11.662;2022-07-18T14:18:40;4.60;;;1.38;;
3645;SDS011;1839;48.060;11.662;2022-07-18T14:21:07;4.72;;;1.48;;
3645;SDS011;1839;48.060;11.662;2022-07-18T14:23:34;9.15;;;1.38;;
3645;SDS011;1839;48.060;11.662;2022-07-18T14:26:01;21.30;;;1.92;;
3645;SDS011;1839;48.060;11.662;2022-07-18T14:28:29;3.63;;;1.10;;
3645;SDS011;1839;48.060;11.662;2022-07-18T14:30:57;5.55;;;1.40;;
3645;SDS011;1839;48.060;11.662;2022-07-18T14:33:24;7.97;;;1.02;;
3645;SDS011;1839;48.060;11.662;2022-07-18T14:35:52;5.95;;;1.50;;
3645;SDS011;1839;48.060;11.662;2022-07-18T14:38:19;5.82;;;1.50;;
3645;SDS011;1839;48.060;11.662;2022-07-18T14:40:46;3.00;;;1.10;;
3645;SDS011;1839;48.060;11.662;2022-07-18T14:43:13;4.00;;;1.50;;
3645;SDS011;1839;48.060;11.662;2022-07-18T14:45:41;10.02;;;1.58;;
3645;SDS011;1839;48.060;11.662;2022-07-18T14:48:10;7.60;;;1.45;;
3645;SDS011;1839;48.060;11.662;2022-07-18T14:50:37;2.90;;;1.10;;
3645;SDS011;1839;48.060;11.662;2022-07-18T14:53:04;3.35;;;1.17;;
3645;SDS011;1839;48.060;11.662;2022-07-18T14:55:31;3.55;;;1.40;;
3645;SDS011;1839;48.060;11.662;2022-07-18T14:57:58;5.30;;;1.20;;
3645;SDS011;1839;48.060;11.662;2022-07-18T15:00:28;5.32;;;1.50;;
3645;SDS011;1839;48.060;11.662;2022-07-18T15:02:55;5.40;;;1.42;;
3645;SDS011;1839;48.060;11.662;2022-07-18T15:05:23;4.25;;;1.63;;
3645;SDS011;1839;48.060;11.662;2022-07-18T15:07:51;4.88;;;1.65;;
3645;SDS011;1839;48.060;11.662;2022-07-18T15:10:18;5.05;;;1.10;;
3645;SDS011;1839;48.060;11.662;2022-07-18T15:12:45;4.55;;;1.27;;
3645;SDS011;1839;48.060;11.662;2022-07-18T15:15:12;3.28;;;1.23;;
3645;SDS011;1839;48.060;11.662;2022-07-18T15:17:39;6.00;;;1.52;;
3645;SDS011;1839;48.060;11.662;2022-07-18T15:20:07;4.55;;;1.35;;
3645;SDS011;1839;48.060;11.662;2022-07-18T15:22:37;3.42;;;1.33;;
3645;SDS011;1839;48.060;11.662;2022-07-18T15:25:04;4.45;;;1.20;;
3645;SDS011;1839;48.060;11.662;2022-07-18T15:27:32;4.97;;;1.10;;
3645;SDS011;1839;48.060;11.662;2022-07-18T15:29:59;7.47;;;1.40;;
3645;SDS011;1839;48.060;11.662;2022-07-18T15:32:26;3.85;;;1.80;;
3645;SDS011;1839;48.060;11.662;2022-07-18T15:34:53;5.60;;;1.75;;
3645;SDS011;1839;48.060;11.662;2022-07-18T15:37:21;5.78;;;1.70;;
3645;SDS011;1839;48.060;11.662;2022-07-18T15:39:49;9.38;;;1.50;;
3645;SDS011;1839;48.060;11.662;2022-07-18T15:42:16;5.05;;;1.50;;
3645;SDS011;1839;48.060;11.662;2022-07-18T15:44:43;4.75;;;1.52;;
3645;SDS011;1839;48.060;11.662;2022-07-18T15:47:11;3.40;;;1.10;;
3645;SDS011;1839;48.060;11.662;2022-07-18T15:49:38;3.40;;;1.20;;
3645;SDS011;1839;48.060;11.662;2022-07-18T15:52:05;11.10;;;1.77;;
3645;SDS011;1839;48.060;11.662;2022-07-18T15:54:33;4.07;;;1.30;;
3645;SDS011;1839;48.060;11.662;2022-07-18T15:57:02;3.42;;;1.10;;
3645;SDS011;1839;48.060;11.662;2022-07-18T15:59:29;14.85;;;2.13;;
3645;SDS011;1839;48.060;11.662;2022-07-18T16:01:57;4.50;;;1.45;;
3645;SDS011;1839;48.060;11.662;2022-07-18T16:04:24;5.85;;;1.70;;
3645;SDS011;1839;48.060;11.662;2022-07-18T16:06:51;4.10;;;1.38;;
3645;SDS011;1839;48.060;11.662;2022-07-18T16:09:18;9.10;;;1.60;;
3645;SDS011;1839;48.060;11.662;2022-07-18T16:11:46;7.82;;;2.15;;
3645;SDS011;1839;48.060;11.662;2022-07-18T16:14:14;6.10;;;1.80;;
3645;SDS011;1839;48.060;11.662;2022-07-18T16:16:42;10.77;;;1.98;;
3645;SDS011;1839;48.060;11.662;2022-07-18T16:19:09;11.15;;;2.05;;
3645;SDS011;1839;48.060;11.662;2022-07-18T16:21:37;11.90;;;1.92;;
3645;SDS011;1839;48.060;11.662;2022-07-18T16:24:04;7.68;;;1.45;;
3645;SDS011;1839;48.060;11.662;2022-07-18T16:26:32;14.85;;;1.88;;
3645;SDS011;1839;48.060;11.662;2022-07-18T16:28:59;4.78;;;1.50;;
3645;SDS011;1839;48.060;11.662;2022-07-18T16:31:28;5.05;;;1.67;;
3645;SDS011;1839;48.060;11.662;2022-07-18T16:33:55;4.70;;;1.50;;
3645;SDS011;1839;48.060;11.662;2022-07-18T16:36:22;6.77;;;1.80;;
3645;SDS011;1839;48.060;11.662;2022-07-18T16:38:50;4.93;;;1.50;;
3645;SDS011;1839;48.060;11.662;2022-07-18T16:41:17;5.43;;;1.70;;
3645;SDS011;1839;48.060;11.662;2022-07-18T16:43:44;7.93;;;1.77;;
3645;SDS011;1839;48.060;11.662;2022-07-18T16:46:11;8.03;;;1.80;;
3645;SDS011;1839;48.060;11.662;2022-07-18T16:48:40;5.33;;;1.60;;
3645;SDS011;1839;48.060;11.662;2022-07-18T16:51:07;5.77;;;1.70;;
3645;SDS011;1839;48.060;11.662;2022-07-18T16:53:35;5.37;;;1.70;;
3645;SDS011;1839;48.060;11.662;2022-07-18T16:56:03;7.30;;;1.77;;
3645;SDS011;1839;48.060;11.662;2022-07-18T16:58:31;6.97;;;2.20;;
3645;SDS011;1839;48.060;11.662;2022-07-18T17:00:58;5.37;;;1.43;;
3645;SDS011;1839;48.060;11.662;2022-07-18T17:03:26;8.73;;;1.83;;
3645;SDS011;1839;48.060;11.662;2022-07-18T17:05:55;5.97;;;1.90;;
3645;SDS011;1839;48.060;11.662;2022-07-18T17:08:24;6.30;;;2.13;;
3645;SDS011;1839;48.060;11.662;2022-07-18T17:10:51;5.60;;;1.73;;
3645;SDS011;1839;48.060;11.662;2022-07-18T17:13:18;6.83;;;2.00;;
3645;SDS011;1839;48.060;11.662;2022-07-18T17:15:45;5.70;;;1.70;;
3645;SDS011;1839;48.060;11.662;2022-07-18T17:18:13;7.00;;;1.90;;
3645;SDS011;1839;48.060;11.662;2022-07-18T17:20:40;6.17;;;1.93;;
3645;SDS011;1839;48.060;11.662;2022-07-18T17:23:09;8.47;;;2.10;;
3645;SDS011;1839;48.060;11.662;2022-07-18T17:25:37;5.10;;;1.50;;
3645;SDS011;1839;48.060;11.662;2022-07-18T17:28:05;6.37;;;1.90;;
3645;SDS011;1839;48.060;11.662;2022-07-18T17:30:33;8.60;;;1.70;;
3645;SDS011;1839;48.060;11.662;2022-07-18T17:33:00;13.43;;;2.10;;
3645;SDS011;1839;48.060;11.662;2022-07-18T17:35:27;7.40;;;1.73;;
3645;SDS011;1839;48.060;11.662;2022-07-18T17:37:55;9.07;;;2.30;;
3645;SDS011;1839;48.060;11.662;2022-07-18T17:40:24;8.13;;;1.90;;
3645;SDS011;1839;48.060;11.662;2022-07-18T17:42:52;6.57;;;2.00;;
3645;SDS011;1839;48.060;11.662;2022-07-18T17:45:20;8.77;;;2.03;;
3645;SDS011;1839;48.060;11.662;2022-07-18T17:47:50;6.80;;;2.13;;
3645;SDS011;1839;48.060;11.662;2022-07-18T17:50:17;8.33;;;2.23;;
3645;SDS011;1839;48.060;11.662;2022-07-18T17:52:44;7.10;;;2.33;;
3645;SDS011;1839;48.060;11.662;2022-07-18T17:55:12;20.23;;;2.20;;
3645;SDS011;1839;48.060;11.662;2022-07-18T17:57:41;6.53;;;1.97;;
3645;SDS011;1839;48.060;11.662;2022-07-18T18:00:09;10.73;;;1.90;;
3645;SDS011;1839;48.060;11.662;2022-07-18T18:02:37;6.40;;;2.10;;
3645;SDS011;1839;48.060;11.662;2022-07-18T18:05:04;7.20;;;1.80;;
3645;SDS011;1839;48.060;11.662;2022-07-18T18:07:32;7.10;;;1.87;;
3645;SDS011;1839;48.060;11.662;2022-07-18T18:10:00;7.00;;;1.97;;
3645;SDS011;1839;48.060;11.662;2022-07-18T18:12:27;6.90;;;2.00;;
3645;SDS011;1839;48.060;11.662;2022-07-18T18:14:55;7.30;;;1.83;;
3645;SDS011;1839;48.060;11.662;2022-07-18T18:17:23;7.90;;;2.40;;
3645;SDS011;1839;48.060;11.662;2022-07-18T18:19:50;10.73;;;2.10;;
3645;SDS011;1839;48.060;11.662;2022-07-18T18:22:17;5.70;;;1.90;;
3645;SDS011;1839;48.060;11.662;2022-07-18T18:24:45;8.27;;;2.10;;
3645;SDS011;1839;48.060;11.662;2022-07-18T18:27:12;5.97;;;2.10;;
3645;SDS011;1839;48.060;11.662;2022-07-18T18:29:39;5.17;;;1.67;;
3645;SDS011;1839;48.060;11.662;2022-07-18T18:32:08;7.57;;;2.10;;
3645;SDS011;1839;48.060;11.662;2022-07-18T18:34:36;6.27;;;1.90;;
3645;SDS011;1839;48.060;11.662;2022-07-18T18:37:03;7.67;;;2.47;;
3645;SDS011;1839;48.060;11.662;2022-07-18T18:39:32;7.63;;;2.50;;
3645;SDS011;1839;48.060;11.662;2022-07-18T18:42:00;10.20;;;2.33;;
3645;SDS011;1839;48.060;11.662;2022-07-18T18:44:27;9.70;;;2.40;;
3645;SDS011;1839;48.060;11.662;2022-07-18T18:46:55;8.33;;;2.63;;
3645;SDS011;1839;48.060;11.662;2022-07-18T18:49:23;7.10;;;2.60;;
3645;SDS011;1839;48.060;11.662;2022-07-18T18:51:51;12.30;;;2.33;;
3645;SDS011;1839;48.060;11.662;2022-07-18T18:54:19;7.70;;;2.47;;
3645;SDS011;1839;48.060;11.662;2022-07-18T18:56:48;7.17;;;2.33;;
3645;SDS011;1839;48.060;11.662;2022-07-18T18:59:15;7.73;;;2.40;;
3645;SDS011;1839;48.060;11.662;2022-07-18T19:01:43;11.00;;;2.97;;
3645;SDS011;1839;48.060;11.662;2022-07-18T19:04:11;7.47;;;2.33;;
3645;SDS011;1839;48.060;11.662;2022-07-18T19:06:39;11.73;;;2.30;;
3645;SDS011;1839;48.060;11.662;2022-07-18T19:09:08;15.90;;;2.80;;
3645;SDS011;1839;48.060;11.662;2022-07-18T19:11:35;5.90;;;1.97;;
3645;SDS011;1839;48.060;11.662;2022-07-18T19:14:02;7.47;;;2.07;;
3645;SDS011;1839;48.060;11.662;2022-07-18T19:16:30;13.33;;;2.20;;
3645;SDS011;1839;48.060;11.662;2022-07-18T19:18:57;7.87;;;2.00;;
3645;SDS011;1839;48.060;11.662;2022-07-18T19:21:24;10.23;;;2.37;;
3645;SDS011;1839;48.060;11.662;2022-07-18T19:23:53;8.93;;;2.40;;
3645;SDS011;1839;48.060;11.662;2022-07-18T19:26:20;8.93;;;2.80;;
3645;SDS011;1839;48.060;11.662;2022-07-18T19:28:47;8.03;;;2.30;;
3645;SDS011;1839;48.060;11.662;2022-07-18T19:31:15;13.10;;;2.70;;
3645;SDS011;1839;48.060;11.662;2022-07-18T19:33:42;8.37;;;2.60;;
3645;SDS011;1839;48.060;11.662;2022-07-18T19:36:09;7.17;;;2.00;;
3645;SDS011;1839;48.060;11.662;2022-07-18T19:38:36;7.60;;;2.10;;
3645;SDS011;1839;48.060;11.662;2022-07-18T19:41:05;6.93;;;2.10;;
3645;SDS011;1839;48.060;11.662;2022-07-18T19:43:32;6.90;;;2.03;;
3645;SDS011;1839;48.060;11.662;2022-07-18T19:46:01;8.00;;;2.77;;
3645;SDS011;1839;48.060;11.662;2022-07-18T19:48:28;9.17;;;2.53;;
3645;SDS011;1839;48.060;11.662;2022-07-18T19:50:55;7.30;;;2.50;;
3645;SDS011;1839;48.060;11.662;2022-07-18T19:53:23;6.80;;;2.20;;
3645;SDS011;1839;48.060;11.662;2022-07-18T19:55:50;10.20;;;2.63;;
3645;SDS011;1839;48.060;11.662;2022-07-18T19:58:18;10.50;;;2.70;;
3645;SDS011;1839;48.060;11.662;2022-07-18T20:00:46;6.70;;;1.80;;
3645;SDS011;1839;48.060;11.662;2022-07-18T20:03:13;7.40;;;1.93;;
3645;SDS011;1839;48.060;11.662;2022-07-18T20:05:40;8.07;;;2.30;;
3645;SDS011;1839;48.060;11.662;2022-07-18T20:08:07;10.03;;;2.57;;
3645;SDS011;1839;48.060;11.662;2022-07-18T20:10:37;7.20;;;2.10;;
3645;SDS011;1839;48.060;11.662;2022-07-18T20:13:04;7.57;;;2.57;;
3645;SDS011;1839;48.060;11.662;2022-07-18T20:15:33;7.93;;;2.07;;
3645;SDS011;1839;48.060;11.662;2022-07-18T20:18:01;9.10;;;2.40;;
3645;SDS011;1839;48.060;11.662;2022-07-18T20:20:29;8.60;;;2.60;;